^^
MeteoGriva-Weather Station Historical Data
Daily Summary for September 14, 2020 Units:  Metric    English   Both
Daily Weekly Monthly Yearly Custom
  High: Low: Average:
Temperature: 18.2 °C 9.5 °C 12.8 °C
Dew Point: 11.9 °C 6.8 °C 9 °C
Humidity: 91.8% 64.3% 78%
Wind Speed: 2.7km/h 0km/h 0.1km/h
Wind Gust: 12.2km/h - -
Wind- - South
Pressure: 1024.0 hPa 1021.0 hPa -
Precipitation: 0.0 mm    
Historical Graphs
 
 
Tabular Data for September 14, 2020
Time Temperature Dew Point Pressure Wind Wind Speed Wind Gust Humidity Rainfall Rate (Hourly) solar
00:04 10.3 °C 8.7 °C 1023.4 hPa Calm     89.3% 0.0 mm 0 W/m2
00:09 10.4 °C 8.8 °C 1023.7 hPa Calm     89.7% 0.0 mm 0 W/m2
00:14 10.7 °C 9 °C 1023.4 hPa Calm     89% 0.0 mm 0 W/m2
00:19 10.8 °C 9.1 °C 1023.7 hPa Calm     89% 0.0 mm 0 W/m2
00:24 10.7 °C 9.1 °C 1023.7 hPa Calm     89.8% 0.0 mm 0 W/m2
00:29 10.7 °C 9.1 °C 1023.7 hPa Calm     90% 0.0 mm 0 W/m2
00:34 10.3 °C 8.8 °C 1023.4 hPa Calm     90.8% 0.0 mm 0 W/m2
00:39 10.2 °C 8.7 °C 1023.4 hPa Calm     90.4% 0.0 mm 0 W/m2
00:44 10.2 °C 8.6 °C 1023.4 hPa Calm     90% 0.0 mm 0 W/m2
00:49 10.2 °C 8.7 °C 1023.4 hPa Calm     90.7% 0.0 mm 0 W/m2
00:54 10.5 °C 8.9 °C 1023.4 hPa Calm     90% 0.0 mm 0 W/m2
00:59 10.6 °C 9 °C 1023.4 hPa Calm     90% 0.0 mm 0 W/m2
01:04 10.6 °C 9.1 °C 1023.4 hPa Calm     90.4% 0.0 mm 0 W/m2
01:09 10.6 °C 9.2 °C 1023.4 hPa Calm     91% 0.0 mm 0 W/m2
01:14 10.4 °C 9 °C 1023.4 hPa Calm     91% 0.0 mm 0 W/m2
01:19 10.4 °C 8.8 °C 1023.4 hPa Calm     90.3% 0.0 mm 0 W/m2
01:24 10.4 °C 8.7 °C 1023.4 hPa Calm     89.4% 0.0 mm 0 W/m2
01:29 10.4 °C 8.7 °C 1023.4 hPa Calm     89.4% 0.0 mm 0 W/m2
01:34 10.3 °C 8.7 °C 1023.4 hPa Calm     90% 0.0 mm 0 W/m2
01:39 10.2 °C 8.6 °C 1023.4 hPa Calm     90.1% 0.0 mm 0 W/m2
01:44 10.2 °C 8.6 °C 1023.4 hPa Calm     90.2% 0.0 mm 0 W/m2
01:49 10.2 °C 8.7 °C 1023.4 hPa Calm     90.6% 0.0 mm 0 W/m2
01:54 10.3 °C 8.8 °C 1023.4 hPa Calm     90.7% 0.0 mm 0 W/m2
01:59 10.3 °C 8.7 °C 1023.7 hPa Calm     90% 0.0 mm 0 W/m2
02:04 10.3 °C 8.7 °C 1023.4 hPa Calm     90% 0.0 mm 0 W/m2
02:09 10.3 °C 8.8 °C 1023.7 hPa Calm     90.4% 0.0 mm 0 W/m2
02:14 10.1 °C 8.6 °C 1023.7 hPa Calm     90.4% 0.0 mm 0 W/m2
02:19 10.1 °C 8.7 °C 1023.7 hPa Calm     90.9% 0.0 mm 0 W/m2
02:24 10.1 °C 8.6 °C 1024.0 hPa Calm     90.3% 0.0 mm 0 W/m2
02:29 10.1 °C 8.6 °C 1024.0 hPa Calm     90.6% 0.0 mm 0 W/m2
02:34 10.2 °C 8.6 °C 1023.7 hPa Calm     90.1% 0.0 mm 0 W/m2
02:39 10.3 °C 8.7 °C 1023.7 hPa Calm     90% 0.0 mm 0 W/m2
02:44 10.3 °C 8.7 °C 1023.7 hPa Calm     90% 0.0 mm 0 W/m2
02:49 10.3 °C 8.7 °C 1023.7 hPa Calm     90% 0.0 mm 0 W/m2
02:54 10.3 °C 8.8 °C 1023.7 hPa Calm     90% 0.0 mm 0 W/m2
02:59 10.4 °C 8.8 °C 1023.7 hPa Calm     90.2% 0.0 mm 0 W/m2
03:04 10.4 °C 8.8 °C 1023.7 hPa Calm     89.7% 0.0 mm 0 W/m2
03:09 10.4 °C 8.2 °C 1023.7 hPa Calm     85.9% 0.0 mm 0 W/m2
03:14 10.4 °C 8.3 °C 1023.4 hPa Calm     86.6% 0.0 mm 0 W/m2
03:19 10.5 °C 8.7 °C 1023.4 hPa Calm     88.3% 0.0 mm 0 W/m2
03:24 10.4 °C 8.7 °C 1023.4 hPa Calm     88.9% 0.0 mm 0 W/m2
03:29 10.4 °C 8.7 °C 1023.4 hPa SW 0.1 km/h 4 km/h 89.2% 0.0 mm 0 W/m2
03:34 10.3 °C 8.8 °C 1023.4 hPa Calm   4 km/h 90.4% 0.0 mm 0 W/m2
03:39 10.3 °C 8.8 °C 1023.4 hPa Calm     90.4% 0.0 mm 0 W/m2
03:44 10.3 °C 8.8 °C 1023.4 hPa Calm     90.4% 0.0 mm 0 W/m2
03:49 10.3 °C 8.7 °C 1023.4 hPa Calm     90.1% 0.0 mm 0 W/m2
03:54 10.4 °C 8.8 °C 1023.4 hPa Calm     90% 0.0 mm 0 W/m2
03:59 10.5 °C 8.9 °C 1023.4 hPa Calm     90% 0.0 mm 0 W/m2
04:04 10.5 °C 8.9 °C 1023.4 hPa Calm     90.3% 0.0 mm 0 W/m2
04:09 10.4 °C 9 °C 1023.4 hPa Calm     90.9% 0.0 mm 0 W/m2
04:14 10.5 °C 8.8 °C 1023.0 hPa Calm     89.4% 0.0 mm 0 W/m2
04:19 10.5 °C 8.7 °C 1023.0 hPa Calm     88.5% 0.0 mm 0 W/m2
04:24 10.5 °C 8.6 °C 1023.0 hPa Calm     88% 0.0 mm 0 W/m2
04:29 10.5 °C 8.6 °C 1023.0 hPa Calm     87.8% 0.0 mm 0 W/m2
04:34 10.5 °C 8.4 °C 1023.0 hPa Calm     86.4% 0.0 mm 0 W/m2
04:39 10.7 °C 8.3 °C 1023.0 hPa Calm     85.2% 0.0 mm 0 W/m2
04:44 10.7 °C 8.5 °C 1023.4 hPa Calm     86.8% 0.0 mm 0 W/m2
04:49 10.6 °C 8.7 °C 1023.0 hPa Calm     87.8% 0.0 mm 0 W/m2
04:54 10.4 °C 8.5 °C 1023.4 hPa Calm     88% 0.0 mm 0 W/m2
04:59 10.3 °C 8.6 °C 1023.4 hPa Calm     88.8% 0.0 mm 0 W/m2
05:04 10.3 °C 8.6 °C 1023.4 hPa Calm     89.3% 0.0 mm 0 W/m2
05:09 10.3 °C 8.8 °C 1023.4 hPa Calm     90.7% 0.0 mm 0 W/m2
05:14 10.2 °C 8.6 °C 1023.4 hPa Calm     90.4% 0.0 mm 0 W/m2
05:19 10 °C 8.4 °C 1023.4 hPa Calm     90% 0.0 mm 0 W/m2
05:24 10 °C 8.5 °C 1023.4 hPa Calm     90.4% 0.0 mm 0 W/m2
05:29 10 °C 8.6 °C 1023.4 hPa Calm     90.9% 0.0 mm 0 W/m2
05:34 10 °C 8.3 °C 1023.4 hPa Calm     89.2% 0.0 mm 0 W/m2
05:39 10 °C 8.1 °C 1023.4 hPa Calm     88.1% 0.0 mm 0 W/m2
05:44 10 °C 8 °C 1023.4 hPa Calm     87.4% 0.0 mm 0 W/m2
05:49 10.1 °C 7.9 °C 1023.4 hPa Calm     86.4% 0.0 mm 0 W/m2
05:54 10.4 °C 8 °C 1023.4 hPa Calm     85.4% 0.0 mm 0 W/m2
05:59 10.6 °C 8.2 °C 1023.4 hPa Calm     85% 0.0 mm 0 W/m2
06:04 10.7 °C 8.2 °C 1023.4 hPa Calm     84.7% 0.0 mm 0 W/m2
06:09 10.7 °C 8 °C 1023.4 hPa Calm     83.7% 0.0 mm 0 W/m2
06:14 10.8 °C 8 °C 1023.4 hPa Calm     83.1% 0.0 mm 0 W/m2
06:19 10.9 °C 8.4 °C 1023.4 hPa Calm     84.1% 0.0 mm 0 W/m2
06:24 10.9 °C 8.5 °C 1023.4 hPa Calm     85% 0.0 mm 0 W/m2
06:29 10.8 °C 8.5 °C 1023.4 hPa Calm     85.6% 0.0 mm 0 W/m2
06:34 10.6 °C 8.5 °C 1023.4 hPa Calm     86.6% 0.0 mm 0 W/m2
06:39 10.3 °C 8.1 °C 1023.0 hPa Calm     86.1% 0.0 mm 0 W/m2
06:44 10.3 °C 8.2 °C 1023.0 hPa WNW 0.1 km/h 4 km/h 86.5% 0.0 mm 0 W/m2
06:49 10.3 °C 7.7 °C 1023.0 hPa NNW 0.3 km/h 7.9 km/h 83.9% 0.0 mm 0 W/m2
06:54 10.4 °C 7.7 °C 1023.4 hPa Calm     83.8% 0.0 mm 0 W/m2
06:59 10.2 °C 8.2 °C 1023.4 hPa Calm     87.4% 0.0 mm 0 W/m2
07:04 10.2 °C 8.6 °C 1023.4 hPa Calm     90% 0.0 mm 0 W/m2
07:09 10.1 °C 8.6 °C 1023.4 hPa South 0.4 km/h 4 km/h 90.8% 0.0 mm 0 W/m2
07:14 9.9 °C 8.4 °C 1023.4 hPa Calm   4 km/h 90.6% 0.0 mm 0 W/m2
07:19 9.5 °C 8.2 °C 1023.4 hPa Calm     91.4% 0.0 mm 0 W/m2
07:24 9.5 °C 8.2 °C 1023.0 hPa Calm     91.8% 0.0 mm 5 W/m2
07:29 9.5 °C 8 °C 1023.4 hPa Calm     90.7% 0.0 mm 9 W/m2
07:34 9.5 °C 7.9 °C 1023.4 hPa Calm     89.9% 0.0 mm 14 W/m2
07:39 10 °C 8.2 °C 1023.4 hPa Calm     88.6% 0.0 mm 21 W/m2
07:44 10 °C 8.1 °C 1023.4 hPa Calm     88% 0.0 mm 26 W/m2
07:49 10.2 °C 7.6 °C 1023.4 hPa Calm     84.1% 0.0 mm 31 W/m2
07:54 10.5 °C 7 °C 1023.4 hPa ESE 0.6 km/h 7.9 km/h 78.9% 0.0 mm 37 W/m2
07:59 12.7 °C 8.7 °C 1023.4 hPa NW 1.1 km/h 7.9 km/h 76.4% 0.0 mm 42 W/m2
08:04 12.7 °C 8.6 °C 1023.4 hPa West 0.3 km/h 7.9 km/h 75.8% 0.0 mm 46 W/m2
08:09 12.8 °C 8.4 °C 1023.4 hPa NNE 0.1 km/h 7.9 km/h 74.4% 0.0 mm 51 W/m2
08:14 13 °C 8.5 °C 1023.7 hPa Calm   4 km/h 74% 0.0 mm 55 W/m2
08:19 13.6 °C 8.9 °C 1023.7 hPa NNW 1.1 km/h 7.9 km/h 73.2% 0.0 mm 58 W/m2
08:24 13.6 °C 8.8 °C 1023.7 hPa ENE 0.5 km/h 7.9 km/h 73% 0.0 mm 62 W/m2
08:29 13.7 °C 9.3 °C 1023.7 hPa Calm   4 km/h 75% 0.0 mm 65 W/m2
08:34 13.7 °C 9.7 °C 1023.7 hPa Calm     76.8% 0.0 mm 69 W/m2
08:39 13.7 °C 9.9 °C 1024.0 hPa Calm     78% 0.0 mm 72 W/m2
08:44 13.8 °C 10 °C 1024.0 hPa Calm     77.9% 0.0 mm 73 W/m2
08:49 13.7 °C 10.3 °C 1024.0 hPa Calm     79.9% 0.0 mm 75 W/m2
08:54 13.7 °C 9.7 °C 1024.0 hPa Calm     77.3% 0.0 mm 78 W/m2
08:59 14.1 °C 10.2 °C 1024.0 hPa Calm     77.7% 0.0 mm 79 W/m2
09:04 14.2 °C 10.1 °C 1023.7 hPa Calm     76.6% 0.0 mm 80 W/m2
09:09 14.3 °C 9.6 °C 1024.0 hPa Calm     73.3% 0.0 mm 81 W/m2
09:14 14.7 °C 9.6 °C 1023.7 hPa Calm     71.2% 0.0 mm 82 W/m2
09:19 15.1 °C 10.3 °C 1023.7 hPa Calm     73.2% 0.0 mm 83 W/m2
09:22 15.1 °C 10.5 °C 1023.7 hPa ESE 1.1 km/h 7.9 km/h 74% 0.0 mm 83 W/m2
09:29 15.1 °C 11 °C 1023.7 hPa Calm     76.2% 0.0 mm 84 W/m2
09:34 15.2 °C 10.7 °C 1024.0 hPa Calm     74.6% 0.0 mm 85 W/m2
09:39 13.9 °C 10.8 °C 1024.0 hPa Calm     81.6% 0.0 mm 85 W/m2
09:44 13.7 °C 10.6 °C 1024.0 hPa SSW 0.1 km/h 4 km/h 81.2% 0.0 mm 85 W/m2
09:49 13.9 °C 9.9 °C 1024.0 hPa Calm     76.9% 0.0 mm 86 W/m2
09:54 14.1 °C 10.2 °C 1023.7 hPa Calm     77.6% 0.0 mm 86 W/m2
09:59 13.5 °C 10.4 °C 1024.0 hPa ENE 1.1 km/h 7.9 km/h 81.2% 0.0 mm 86 W/m2
10:04 13.3 °C 10.3 °C 1024.0 hPa Calm   7.9 km/h 81.7% 0.0 mm 87 W/m2
10:09 13.3 °C 9.8 °C 1024.0 hPa Calm     79.8% 0.0 mm 89 W/m2
10:14 13.3 °C 9.7 °C 1024.0 hPa Calm     79% 0.0 mm 92 W/m2
10:19 14.2 °C 10.3 °C 1024.0 hPa Calm     77.1% 0.0 mm 94 W/m2
10:24 14.4 °C 10.5 °C 1024.0 hPa Calm     77.5% 0.0 mm 98 W/m2
10:29 14.4 °C 10.6 °C 1024.0 hPa Calm     78% 0.0 mm 101 W/m2
10:34 14.4 °C 10.8 °C 1024.0 hPa Calm     79% 0.0 mm 105 W/m2
10:39 14.7 °C 10.9 °C 1024.0 hPa Calm     78% 0.0 mm 109 W/m2
10:44 14.7 °C 11.2 °C 1023.7 hPa Calm     79.7% 0.0 mm 111 W/m2
10:49 14.6 °C 10.7 °C 1023.7 hPa Calm     77.6% 0.0 mm 117 W/m2
10:54 14.7 °C 10.3 °C 1023.7 hPa Calm     75.5% 0.0 mm 122 W/m2
10:59 15.8 °C 11.2 °C 1023.7 hPa Calm   4 km/h 74% 0.0 mm 127 W/m2
11:04 16 °C 11.1 °C 1023.7 hPa Calm     72.6% 0.0 mm 132 W/m2
11:09 15.9 °C 11.2 °C 1023.7 hPa Calm   4 km/h 73.3% 0.0 mm 138 W/m2
11:14 15.7 °C 11 °C 1023.7 hPa Calm     73.3% 0.0 mm 144 W/m2
11:19 15.1 °C 10.4 °C 1023.7 hPa Calm     73.8% 0.0 mm 148 W/m2
11:24 14.8 °C 10.2 °C 1023.7 hPa Calm     73.9% 0.0 mm 148 W/m2
11:29 14.9 °C 10 °C 1023.4 hPa Calm   4 km/h 72.4% 0.0 mm 115 W/m2
11:34 15.2 °C 10.2 °C 1023.4 hPa ESE 1 km/h 7.9 km/h 72% 0.0 mm 97 W/m2
11:39 16.2 °C 11.1 °C 1023.4 hPa SSE 0.1 km/h 7.9 km/h 72.1% 0.0 mm 95 W/m2
11:44 16.6 °C 11.5 °C 1023.4 hPa ESE 0.5 km/h 7.9 km/h 71.8% 0.0 mm 94 W/m2
11:49 16.5 °C 11.9 °C 1023.4 hPa SSE 1.7 km/h 12.2 km/h 74.2% 0.0 mm 100 W/m2
11:54 16.4 °C 11.7 °C 1023.4 hPa ESE 0.2 km/h 12.2 km/h 73.8% 0.0 mm 163 W/m2
11:59 16.6 °C 11.6 °C 1023.0 hPa SSE 0.6 km/h 7.9 km/h 72.3% 0.0 mm 211 W/m2
12:04 16.8 °C 11.3 °C 1023.4 hPa Calm   7.9 km/h 70.1% 0.0 mm 221 W/m2
12:09 16.8 °C 11.6 °C 1023.4 hPa SSE 2 km/h 12.2 km/h 71.3% 0.0 mm 236 W/m2
12:14 16.8 °C 11.6 °C 1023.0 hPa South 2 km/h 12.2 km/h 71.4% 0.0 mm 243 W/m2
12:19 16.8 °C 11.6 °C 1023.0 hPa SE 2.2 km/h 12.2 km/h 71.6% 0.0 mm 254 W/m2
12:24 16.7 °C 11.5 °C 1022.7 hPa SE 0.8 km/h 12.2 km/h 71.3% 0.0 mm 263 W/m2
12:29 16.8 °C 11.5 °C 1022.7 hPa SSE 0.2 km/h 12.2 km/h 71.2% 0.0 mm 280 W/m2
12:34 16.8 °C 11.5 °C 1022.7 hPa SSE 2.1 km/h 12.2 km/h 70.9% 0.0 mm 292 W/m2
12:39 17 °C 11.5 °C 1022.4 hPa SE 1.4 km/h 7.9 km/h 69.7% 0.0 mm 302 W/m2
12:44 17.2 °C 11.7 °C 1022.4 hPa SSE 1.8 km/h 7.9 km/h 70.1% 0.0 mm 317 W/m2
12:49 17.1 °C 11.7 °C 1022.4 hPa South 0.7 km/h 7.9 km/h 70.6% 0.0 mm 323 W/m2
12:54 17.1 °C 11.7 °C 1022.4 hPa SSE 1.4 km/h 12.2 km/h 70.4% 0.0 mm 330 W/m2
12:59 17.1 °C 11.7 °C 1022.4 hPa SE 0.7 km/h 7.9 km/h 70.4% 0.0 mm 332 W/m2
13:04 17.1 °C 11.5 °C 1022.4 hPa SE 1 km/h 12.2 km/h 69.7% 0.0 mm 332 W/m2
13:09 17 °C 11.6 °C 1022.4 hPa SE 0.8 km/h 12.2 km/h 70.3% 0.0 mm 330 W/m2
13:14 17 °C 11.5 °C 1022.0 hPa SSE 0.8 km/h 7.9 km/h 69.9% 0.0 mm 336 W/m2
13:19 17.1 °C 11.5 °C 1022.0 hPa SSE 1.2 km/h 7.9 km/h 69.6% 0.0 mm 340 W/m2
13:24 17.1 °C 11.5 °C 1021.7 hPa SSE 1.6 km/h 7.9 km/h 69.7% 0.0 mm 338 W/m2
13:29 17.1 °C 11.5 °C 1021.7 hPa ESE 1.3 km/h 7.9 km/h 69.3% 0.0 mm 337 W/m2
13:34 17.1 °C 11.4 °C 1021.7 hPa South 0.7 km/h 12.2 km/h 69.1% 0.0 mm 340 W/m2
13:39 17.1 °C 11.3 °C 1021.7 hPa Calm   7.9 km/h 68.6% 0.0 mm 336 W/m2
13:44 17.1 °C 11.1 °C 1021.7 hPa Calm     68% 0.0 mm 336 W/m2
13:49 17.1 °C 10.9 °C 1021.7 hPa Calm     67.1% 0.0 mm 325 W/m2
13:54 17.1 °C 11.3 °C 1021.3 hPa Calm     68.6% 0.0 mm 326 W/m2
13:59 17.1 °C 11.1 °C 1021.7 hPa SE 0.2 km/h 4 km/h 68% 0.0 mm 328 W/m2
14:04 17.1 °C 11.1 °C 1021.3 hPa Calm   4 km/h 67.9% 0.0 mm 328 W/m2
14:09 17.2 °C 11 °C 1021.7 hPa SE 0.5 km/h 7.9 km/h 66.9% 0.0 mm 324 W/m2
14:14 17.2 °C 11 °C 1021.3 hPa Calm     67.1% 0.0 mm 320 W/m2
14:19 17.4 °C 11.3 °C 1021.3 hPa South 0.7 km/h 12.2 km/h 67.3% 0.0 mm 318 W/m2
14:24 17.5 °C 11.2 °C 1021.0 hPa Calm     66.4% 0.0 mm 313 W/m2
14:29 17.5 °C 11.2 °C 1021.3 hPa Calm     66.4% 0.0 mm 312 W/m2
14:34 17.6 °C 11.2 °C 1021.3 hPa Calm     65.9% 0.0 mm 310 W/m2
14:39 17.8 °C 11.2 °C 1021.0 hPa Calm     65.3% 0.0 mm 308 W/m2
14:44 18.2 °C 11.4 °C 1021.0 hPa Calm     64.3% 0.0 mm 285 W/m2
14:49 18.2 °C 11.5 °C 1021.0 hPa Calm     65.3% 0.0 mm 290 W/m2
14:54 18 °C 11.9 °C 1021.0 hPa SSW 0.6 km/h 7.9 km/h 67.8% 0.0 mm 206 W/m2
14:59 17.1 °C 11.7 °C 1021.3 hPa Calm     70.6% 0.0 mm 55 W/m2
15:04 15.8 °C 10.8 °C 1021.3 hPa Calm     72% 0.0 mm 62 W/m2
15:09 15.7 °C 10.9 °C 1021.3 hPa Calm     73% 0.0 mm 230 W/m2
15:14 15.7 °C 10.7 °C 1021.3 hPa Calm     72.4% 0.0 mm 229 W/m2
15:19 15.8 °C 10.4 °C 1021.3 hPa Calm     70.4% 0.0 mm 235 W/m2
15:24 16.2 °C 10.5 °C 1021.0 hPa SSW 0.1 km/h 4 km/h 68.9% 0.0 mm 238 W/m2
15:29 16.3 °C 10.3 °C 1021.0 hPa South 0.4 km/h 4 km/h 67.9% 0.0 mm 232 W/m2
15:34 16.4 °C 10.5 °C 1021.0 hPa SSW 0.3 km/h 7.9 km/h 68% 0.0 mm 224 W/m2
15:39 16.3 °C 10.5 °C 1021.0 hPa Calm   7.9 km/h 68.3% 0.0 mm 158 W/m2
15:44 16 °C 10.4 °C 1021.0 hPa Calm     69.6% 0.0 mm 51 W/m2
15:49 16 °C 10.2 °C 1021.0 hPa Calm   4 km/h 68.9% 0.0 mm 47 W/m2
15:54 15.9 °C 10.3 °C 1021.0 hPa SE 0.2 km/h 4 km/h 69.6% 0.0 mm 45 W/m2
15:59 15.5 °C 10.3 °C 1021.3 hPa Calm   4 km/h 71% 0.0 mm 42 W/m2
16:04 15 °C 9.6 °C 1021.0 hPa Calm   4 km/h 70.1% 0.0 mm 40 W/m2
16:09 15 °C 9.6 °C 1021.0 hPa Calm   4 km/h 70.2% 0.0 mm 37 W/m2
16:14 14.9 °C 9.9 °C 1021.3 hPa Calm   4 km/h 72.2% 0.0 mm 35 W/m2
16:19 14.7 °C 9.9 °C 1021.3 hPa South 2.7 km/h 12.2 km/h 73% 0.0 mm 33 W/m2
16:24 14.2 °C 9.5 °C 1021.3 hPa SSE 0.6 km/h 12.2 km/h 73.3% 0.0 mm 30 W/m2
16:29 14.2 °C 9.7 °C 1021.3 hPa South 0.4 km/h 7.9 km/h 74.4% 0.0 mm 27 W/m2
16:34 14.1 °C 9.7 °C 1021.3 hPa Calm   7.9 km/h 75% 0.0 mm 25 W/m2
16:39 13.9 °C 9.6 °C 1021.3 hPa Calm   4 km/h 75.7% 0.0 mm 22 W/m2
16:44 13.3 °C 9.2 °C 1021.3 hPa Calm   4 km/h 76% 0.0 mm 20 W/m2
16:49 13.3 °C 9.1 °C 1021.3 hPa Calm     75.3% 0.0 mm 18 W/m2
16:54 13.3 °C 8.9 °C 1021.3 hPa Calm     74.7% 0.0 mm 14 W/m2
16:59 13.2 °C 8.8 °C 1021.3 hPa Calm     74.8% 0.0 mm 11 W/m2
17:04 12.9 °C 8.4 °C 1021.3 hPa Calm     74.1% 0.0 mm 7 W/m2
17:09 13 °C 8.5 °C 1021.3 hPa Calm     74% 0.0 mm 5 W/m2
17:14 13 °C 8.3 °C 1021.3 hPa Calm     73.1% 0.0 mm 2 W/m2
17:19 13 °C 8.2 °C 1021.3 hPa Calm     72.8% 0.0 mm 0 W/m2
17:24 13.3 °C 8.4 °C 1021.3 hPa Calm     72.4% 0.0 mm 0 W/m2
17:29 13.2 °C 8.5 °C 1021.3 hPa Calm     73% 0.0 mm 0 W/m2
17:34 13.2 °C 8.5 °C 1021.3 hPa Calm     72.9% 0.0 mm 0 W/m2
17:39 13.2 °C 8.5 °C 1021.7 hPa Calm     72.8% 0.0 mm 0 W/m2
17:44 13.3 °C 8.4 °C 1021.7 hPa Calm     72.1% 0.0 mm 0 W/m2
17:49 13.2 °C 8.2 °C 1021.7 hPa Calm     71.8% 0.0 mm 0 W/m2
17:54 13.2 °C 8.1 °C 1021.7 hPa Calm     71% 0.0 mm 0 W/m2
17:59 13.2 °C 8 °C 1021.7 hPa Calm     70.6% 0.0 mm 0 W/m2
18:04 13.2 °C 7.6 °C 1022.0 hPa Calm     69.1% 0.0 mm 0 W/m2
18:09 13.2 °C 7.4 °C 1021.7 hPa Calm     68.1% 0.0 mm 0 W/m2
18:14 13.2 °C 7.6 °C 1021.7 hPa Calm     68.9% 0.0 mm 0 W/m2
18:19 13.2 °C 7.4 °C 1021.7 hPa Calm     68% 0.0 mm 0 W/m2
18:24 13.4 °C 7.5 °C 1022.0 hPa Calm     67.8% 0.0 mm 0 W/m2
18:29 13.4 °C 7.5 °C 1022.0 hPa Calm     67.8% 0.0 mm 0 W/m2
18:34 13.3 °C 7.8 °C 1022.0 hPa Calm   4 km/h 69.8% 0.0 mm 0 W/m2
18:39 13.2 °C 7.5 °C 1022.0 hPa Calm     68.8% 0.0 mm 0 W/m2
18:44 13.2 °C 7.3 °C 1022.0 hPa Calm     67.4% 0.0 mm 0 W/m2
18:49 13.2 °C 7 °C 1022.0 hPa Calm     66% 0.0 mm 0 W/m2
18:54 13.2 °C 7.1 °C 1022.0 hPa Calm     66.6% 0.0 mm 0 W/m2
18:59 13.2 °C 7.3 °C 1022.0 hPa Calm     67.2% 0.0 mm 0 W/m2
19:04 13 °C 7.1 °C 1022.0 hPa Calm     67.2% 0.0 mm 0 W/m2
19:09 13 °C 7 °C 1022.0 hPa Calm     67.2% 0.0 mm 0 W/m2
19:14 13 °C 7.2 °C 1022.0 hPa Calm     68% 0.0 mm 0 W/m2
19:19 13 °C 7.3 °C 1022.0 hPa Calm     68.3% 0.0 mm 0 W/m2
19:24 12.8 °C 7.1 °C 1022.0 hPa Calm     68.3% 0.0 mm 0 W/m2
19:29 12.8 °C 7.1 °C 1022.0 hPa Calm     68.2% 0.0 mm 0 W/m2
19:34 12.8 °C 7.3 °C 1022.0 hPa Calm     69% 0.0 mm 0 W/m2
19:39 12.8 °C 7.2 °C 1022.0 hPa Calm     68.6% 0.0 mm 0 W/m2
19:44 13 °C 7.2 °C 1022.0 hPa Calm     68.2% 0.0 mm 0 W/m2
19:49 13 °C 7.4 °C 1022.0 hPa Calm     69.1% 0.0 mm 0 W/m2
19:54 12.9 °C 7.7 °C 1022.0 hPa Calm     70.6% 0.0 mm 0 W/m2
19:59 12.8 °C 7.7 °C 1022.0 hPa Calm     71% 0.0 mm 0 W/m2
20:04 12.4 °C 7.4 °C 1022.0 hPa Calm     71.6% 0.0 mm 0 W/m2
20:09 12.3 °C 7.6 °C 1022.0 hPa Calm     73.1% 0.0 mm 0 W/m2
20:14 12.2 °C 7.5 °C 1022.0 hPa Calm     73% 0.0 mm 0 W/m2
20:19 12.1 °C 7.4 °C 1022.4 hPa Calm     72.8% 0.0 mm 0 W/m2
20:24 12 °C 7.2 °C 1022.4 hPa Calm     72.2% 0.0 mm 0 W/m2
20:29 12 °C 7.1 °C 1022.4 hPa Calm     72% 0.0 mm 0 W/m2
20:34 12.1 °C 7 °C 1022.4 hPa Calm     70.9% 0.0 mm 0 W/m2
20:39 12.2 °C 6.9 °C 1022.4 hPa Calm     70.2% 0.0 mm 0 W/m2
20:44 12 °C 7 °C 1022.4 hPa Calm     71.8% 0.0 mm 0 W/m2
20:49 12 °C 7.1 °C 1022.4 hPa Calm     72% 0.0 mm 0 W/m2
20:54 12 °C 7 °C 1022.4 hPa Calm     71.7% 0.0 mm 0 W/m2
20:59 12.1 °C 7 °C 1022.4 hPa Calm     71% 0.0 mm 0 W/m2
21:04 12.2 °C 7.1 °C 1022.4 hPa Calm     71% 0.0 mm 0 W/m2
21:09 12.3 °C 7.3 °C 1022.7 hPa Calm     71.7% 0.0 mm 0 W/m2
21:14 12.2 °C 7.5 °C 1022.7 hPa Calm     72.8% 0.0 mm 0 W/m2
21:19 12.1 °C 7.6 °C 1023.0 hPa Calm     74.2% 0.0 mm 0 W/m2
21:24 11.4 °C 7 °C 1022.7 hPa Calm     74.3% 0.0 mm 0 W/m2
21:29 11.3 °C 6.8 °C 1023.0 hPa Calm     74% 0.0 mm 0 W/m2
21:34 11.3 °C 6.8 °C 1023.0 hPa Calm     74% 0.0 mm 0 W/m2
21:39 11.3 °C 6.8 °C 1023.0 hPa Calm     74% 0.0 mm 0 W/m2
21:44 11.5 °C 6.9 °C 1023.0 hPa Calm     73.3% 0.0 mm 0 W/m2
21:49 11.6 °C 6.9 °C 1023.4 hPa Calm     73% 0.0 mm 0 W/m2
21:54 11.6 °C 6.9 °C 1023.4 hPa Calm     73% 0.0 mm 0 W/m2
21:59 11.6 °C 6.9 °C 1023.4 hPa Calm     73% 0.0 mm 0 W/m2
22:04 11.4 °C 6.9 °C 1023.4 hPa Calm     74% 0.0 mm 0 W/m2
22:09 11.2 °C 6.8 °C 1023.4 hPa WSW 0.3 km/h 4 km/h 74.3% 0.0 mm 0 W/m2
22:14 11.2 °C 6.9 °C 1023.4 hPa Calm     75% 0.0 mm 0 W/m2
22:19 11.1 °C 6.9 °C 1023.4 hPa SSW 0.9 km/h 7.9 km/h 75.6% 0.0 mm 0 W/m2
22:24 11 °C 7.1 °C 1023.4 hPa Calm   7.9 km/h 76.6% 0.0 mm 0 W/m2
22:29 11 °C 7.4 °C 1023.4 hPa SSW 0.2 km/h 4 km/h 78.4% 0.0 mm 0 W/m2
22:34 11 °C 7.8 °C 1023.7 hPa Calm   4 km/h 80.2% 0.0 mm 0 W/m2
22:39 10.9 °C 7.8 °C 1023.4 hPa Calm     81.1% 0.0 mm 0 W/m2
22:44 10.7 °C 7.8 °C 1023.4 hPa Calm     81.9% 0.0 mm 0 W/m2
22:49 10.5 °C 7.6 °C 1023.4 hPa Calm     82% 0.0 mm 0 W/m2
22:54 10.5 °C 7.7 °C 1023.4 hPa Calm     82.6% 0.0 mm 0 W/m2
22:59 10.4 °C 7.5 °C 1023.4 hPa Calm     81.9% 0.0 mm 0 W/m2
23:04 10.5 °C 7.4 °C 1023.4 hPa Calm     81% 0.0 mm 0 W/m2
23:09 10.6 °C 7.5 °C 1023.4 hPa Calm     81% 0.0 mm 0 W/m2
23:14 10.6 °C 7.5 °C 1023.4 hPa Calm     81% 0.0 mm 0 W/m2
23:19 10.5 °C 7.4 °C 1023.4 hPa Calm     81% 0.0 mm 0 W/m2
23:24 10.4 °C 7.3 °C 1023.4 hPa Calm     81% 0.0 mm 0 W/m2
23:29 10.4 °C 7.2 °C 1023.4 hPa Calm     80.6% 0.0 mm 0 W/m2
23:34 10.4 °C 7.2 °C 1023.4 hPa Calm     80.4% 0.0 mm 0 W/m2
23:39 10.4 °C 7.3 °C 1023.4 hPa Calm     81% 0.0 mm 0 W/m2
23:44 10.3 °C 7.4 °C 1023.4 hPa Calm     81.8% 0.0 mm 0 W/m2
23:49 10.3 °C 7.2 °C 1023.4 hPa Calm     80.9% 0.0 mm 0 W/m2
23:54 10.3 °C 7.1 °C 1023.4 hPa Calm     80.6% 0.0 mm 0 W/m2
23:59 10.3 °C 7.2 °C 1023.4 hPa Calm   4 km/h 81% 0.0 mm 0 W/m2
Juneau County Weather
Compliments of Weather Underground - 2 mb